Time;durP1;ratioP1;P1;durP2;ratioP2;P2;SDS_P1;SDS_P2;PMS_P1;PMS_P2;Temp;Humidity;BMP_temperature;BMP_pressure;BME280_temperature;BME280_humidity;BME280_pressure;Samples;Min_cycle;Max_cycle;Signal;HPM_P1;HPM_P2
2023/10/24 00:00:07;;;;;;;3.55;2.92;;;16.00;67.80;;;;;;349745;28;836;-54
2023/10/24 00:00:17;;;;;;;4.15;3.22;;;16.10;67.80;;;;;;349606;28;1029;-54
2023/10/24 00:00:28;;;;;;;4.32;3.17;;;16.00;67.80;;;;;;349586;28;880;-54
2023/10/24 00:00:39;;;;;;;4.30;3.03;;;16.00;67.70;;;;;;349526;28;1020;-54
2023/10/24 00:00:50;;;;;;;4.55;2.70;;;16.10;67.70;;;;;;349620;28;884;-54
2023/10/24 00:01:01;;;;;;;4.68;2.80;;;16.00;67.70;;;;;;349485;28;1107;-54
2023/10/24 00:01:11;;;;;;;4.47;2.83;;;16.00;67.70;;;;;;349617;28;1007;-54
2023/10/24 00:01:22;;;;;;;4.50;3.00;;;16.00;67.60;;;;;;349632;28;853;-54
2023/10/24 00:01:33;;;;;;;4.57;3.15;;;16.00;67.50;;;;;;349539;28;1069;-54
2023/10/24 00:01:44;;;;;;;4.47;3.17;;;16.00;67.40;;;;;;349569;28;1134;-54
2023/10/24 00:01:54;;;;;;;4.45;3.20;;;16.00;67.40;;;;;;349645;28;834;-56
2023/10/24 00:02:05;;;;;;;4.77;3.13;;;16.00;67.30;;;;;;349537;28;948;-54
2023/10/24 00:02:16;;;;;;;4.55;3.00;;;16.00;67.30;;;;;;349614;28;1150;-54
2023/10/24 00:02:26;;;;;;;4.00;2.65;;;16.00;67.40;;;;;;349635;28;1502;-54
2023/10/24 00:02:37;;;;;;;3.58;2.60;;;16.00;67.40;;;;;;349676;28;894;-55
2023/10/24 00:02:48;;;;;;;3.40;2.60;;;16.00;67.30;;;;;;349681;28;1091;-55
2023/10/24 00:02:58;;;;;;;3.53;2.65;;;16.00;67.30;;;;;;349772;28;852;-55
2023/10/24 00:03:09;;;;;;;3.55;2.70;;;16.00;67.30;;;;;;349646;28;924;-54
2023/10/24 00:03:20;;;;;;;3.80;2.60;;;16.00;67.30;;;;;;349751;28;1046;-54
2023/10/24 00:03:30;;;;;;;3.85;2.60;;;16.00;67.30;;;;;;349696;28;1102;-55
2023/10/24 00:03:41;;;;;;;4.32;2.70;;;16.00;67.30;;;;;;349622;28;1134;-54
2023/10/24 00:03:52;;;;;;;5.20;2.83;;;16.00;67.40;;;;;;349766;28;1070;-54
2023/10/24 00:04:03;;;;;;;6.07;2.93;;;16.00;67.40;;;;;;349739;28;801;-55
2023/10/24 00:04:14;;;;;;;5.70;3.00;;;16.00;67.50;;;;;;349613;28;920;-54
2023/10/24 00:04:25;;;;;;;5.00;3.10;;;16.00;67.40;;;;;;349666;28;1961;-55
2023/10/24 00:04:36;;;;;;;3.90;2.95;;;16.00;67.40;;;;;;349749;28;972;-53
2023/10/24 00:04:46;;;;;;;3.90;2.90;;;16.10;67.50;;;;;;349677;28;978;-54
2023/10/24 00:04:59;;;;;;;3.97;2.78;;;16.10;67.40;;;;;;349733;28;979;-54
2023/10/24 00:05:10;;;;;;;4.70;2.97;;;16.00;67.20;;;;;;349678;28;1482;-54
2023/10/24 00:05:20;;;;;;;4.03;2.63;;;16.00;67.20;;;;;;349618;28;983;-54
2023/10/24 00:05:31;;;;;;;3.85;2.60;;;16.00;67.20;;;;;;349741;28;1048;-55
2023/10/24 00:05:42;;;;;;;3.95;2.42;;;16.00;67.20;;;;;;349718;28;972;-53
2023/10/24 00:05:53;;;;;;;5.28;2.95;;;16.10;67.30;;;;;;349660;28;1082;-54
2023/10/24 00:06:03;;;;;;;5.28;2.90;;;16.00;67.20;;;;;;349725;28;877;-54
2023/10/24 00:06:15;;;;;;;4.90;2.92;;;16.00;67.20;;;;;;349551;28;1103;-55
2023/10/24 00:06:26;;;;;;;4.15;2.70;;;16.10;67.30;;;;;;349695;28;980;-54
2023/10/24 00:06:37;;;;;;;3.93;2.60;;;16.10;67.30;;;;;;349670;28;970;-54
2023/10/24 00:06:47;;;;;;;3.72;2.47;;;16.10;67.30;;;;;;349737;28;869;-54
2023/10/24 00:06:58;;;;;;;3.83;2.53;;;16.10;67.30;;;;;;349734;28;980;-54
2023/10/24 00:07:09;;;;;;;4.20;2.77;;;16.10;67.40;;;;;;349634;28;1059;-53
2023/10/24 00:07:19;;;;;;;4.13;2.70;;;16.10;67.40;;;;;;349702;28;1019;-54
2023/10/24 00:07:30;;;;;;;3.95;2.50;;;16.10;67.50;;;;;;349629;28;1476;-54
2023/10/24 00:07:42;;;;;;;4.22;2.50;;;16.10;67.50;;;;;;349636;28;942;-55
2023/10/24 00:07:52;;;;;;;4.93;2.40;;;16.10;67.60;;;;;;349741;28;873;-55
2023/10/24 00:08:03;;;;;;;4.68;2.30;;;16.10;67.50;;;;;;349648;28;972;-55
2023/10/24 00:08:14;;;;;;;4.75;2.40;;;16.10;67.40;;;;;;349662;28;1015;-54
2023/10/24 00:08:25;;;;;;;4.53;2.40;;;16.10;67.30;;;;;;349611;28;1094;-54
2023/10/24 00:08:36;;;;;;;4.87;2.43;;;16.10;67.10;;;;;;349738;28;1031;-54
2023/10/24 00:08:46;;;;;;;4.50;2.30;;;16.10;67.10;;;;;;349733;28;1015;-54
2023/10/24 00:08:57;;;;;;;3.50;2.30;;;16.10;66.90;;;;;;349612;28;1169;-54
2023/10/24 00:09:08;;;;;;;3.45;2.25;;;16.00;66.80;;;;;;349719;28;900;-53
2023/10/24 00:09:19;;;;;;;3.40;2.30;;;16.00;66.80;;;;;;349644;28;911;-54
2023/10/24 00:09:29;;;;;;;3.70;2.17;;;16.10;66.80;;;;;;349705;28;1031;-55
2023/10/24 00:09:40;;;;;;;3.85;2.10;;;16.10;66.80;;;;;;349696;28;1027;-55
2023/10/24 00:09:51;;;;;;;3.88;2.05;;;16.00;66.80;;;;;;349593;28;1605;-54
2023/10/24 00:10:02;;;;;;;3.43;2.07;;;16.10;66.80;;;;;;349757;28;798;-54
2023/10/24 00:10:13;;;;;;;3.08;2.20;;;16.10;66.80;;;;;;349648;28;1134;-54
2023/10/24 00:10:24;;;;;;;3.15;2.13;;;16.00;66.70;;;;;;349679;28;1161;-54
2023/10/24 00:10:35;;;;;;;3.15;2.17;;;16.10;66.70;;;;;;349740;28;1027;-53
2023/10/24 00:10:45;;;;;;;3.03;2.10;;;16.00;66.60;;;;;;349626;28;1031;-54
2023/10/24 00:11:01;;;;;;;2.72;2.05;;;16.00;66.40;;;;;;349690;28;968;-54
2023/10/24 00:11:11;;;;;;;3.35;2.00;;;15.90;66.80;;;;;;349648;28;1023;-54
2023/10/24 00:11:22;;;;;;;3.78;2.10;;;15.90;66.90;;;;;;349690;28;999;-54
2023/10/24 00:11:33;;;;;;;3.37;2.10;;;15.90;67.00;;;;;;349615;28;1026;-54
2023/10/24 00:11:44;;;;;;;3.22;2.05;;;15.90;67.10;;;;;;349763;28;1078;-54
2023/10/24 00:11:55;;;;;;;3.30;2.10;;;15.90;67.10;;;;;;349592;28;1083;-54
2023/10/24 00:12:06;;;;;;;3.15;2.00;;;15.90;67.10;;;;;;349636;28;1573;-54
2023/10/24 00:12:16;;;;;;;3.15;2.10;;;15.90;67.20;;;;;;349633;28;1078;-54
2023/10/24 00:12:27;;;;;;;3.40;2.10;;;16.00;67.20;;;;;;349653;28;2409;-54
2023/10/24 00:12:38;;;;;;;3.88;2.03;;;15.90;67.30;;;;;;349584;28;1445;-54
2023/10/24 00:12:48;;;;;;;3.80;1.90;;;16.00;67.30;;;;;;349653;28;2442;-54
2023/10/24 00:12:59;;;;;;;3.40;1.90;;;16.00;67.40;;;;;;349566;28;1264;-54
2023/10/24 00:13:10;;;;;;;3.20;2.10;;;16.00;67.30;;;;;;349749;28;995;-54
2023/10/24 00:13:21;;;;;;;2.92;2.10;;;16.00;67.30;;;;;;349627;28;1079;-55
2023/10/24 00:13:31;;;;;;;2.83;1.90;;;16.00;67.00;;;;;;349679;28;1091;-54
2023/10/24 00:13:42;;;;;;;2.60;1.83;;;15.90;67.00;;;;;;349640;28;1079;-55
2023/10/24 00:13:53;;;;;;;2.88;2.00;;;15.90;67.10;;;;;;349688;28;1964;-54
2023/10/24 00:14:06;;;;;;;2.90;1.98;;;15.90;67.20;;;;;;349556;28;1123;-55
2023/10/24 00:14:17;;;;;;;3.15;2.05;;;16.00;67.20;;;;;;349703;28;919;-55
2023/10/24 00:14:28;;;;;;;3.28;2.00;;;16.00;67.20;;;;;;349610;28;1296;-54
2023/10/24 00:14:38;;;;;;;3.45;2.10;;;16.00;67.30;;;;;;349707;28;1087;-54
2023/10/24 00:14:49;;;;;;;3.30;2.00;;;16.00;67.30;;;;;;349640;28;1035;-54
2023/10/24 00:15:00;;;;;;;3.42;2.10;;;16.00;67.40;;;;;;349695;28;946;-54
2023/10/24 00:15:11;;;;;;;3.22;2.00;;;16.00;67.30;;;;;;349633;28;1173;-54
2023/10/24 00:15:21;;;;;;;3.25;2.00;;;16.00;67.30;;;;;;349633;28;1670;-54
2023/10/24 00:15:32;;;;;;;3.30;1.93;;;16.00;67.20;;;;;;349640;28;1043;-53
2023/10/24 00:15:43;;;;;;;3.17;1.80;;;16.00;67.20;;;;;;349670;28;1182;-54
2023/10/24 00:15:53;;;;;;;2.65;1.75;;;16.00;67.10;;;;;;349729;28;825;-54
2023/10/24 00:16:04;;;;;;;3.83;1.77;;;16.00;67.00;;;;;;349684;28;992;-55
2023/10/24 00:16:15;;;;;;;4.40;1.92;;;16.00;67.00;;;;;;349684;28;1138;-54
2023/10/24 00:16:26;;;;;;;4.83;1.90;;;16.00;67.10;;;;;;349582;28;1186;-54
2023/10/24 00:16:36;;;;;;;4.32;1.90;;;16.00;67.10;;;;;;349709;28;832;-54
2023/10/24 00:16:47;;;;;;;3.90;1.75;;;16.00;67.20;;;;;;349683;28;1011;-54
2023/10/24 00:16:58;;;;;;;3.65;1.80;;;16.00;67.20;;;;;;349673;28;1043;-54
2023/10/24 00:17:09;;;;;;;3.50;2.00;;;16.00;67.20;;;;;;349699;28;1043;-54
2023/10/24 00:17:19;;;;;;;4.00;2.00;;;16.00;67.20;;;;;;349652;28;1031;-54
2023/10/24 00:17:30;;;;;;;4.00;2.00;;;16.00;67.30;;;;;;349653;28;1165;-55
2023/10/24 00:17:41;;;;;;;3.03;1.90;;;16.00;67.40;;;;;;349679;28;1119;-53
2023/10/24 00:17:51;;;;;;;2.90;1.90;;;16.00;67.40;;;;;;349699;28;893;-55
2023/10/24 00:18:02;;;;;;;3.35;1.95;;;16.00;67.40;;;;;;349661;28;1035;-53
2023/10/24 00:18:13;;;;;;;3.70;2.10;;;16.00;67.40;;;;;;349573;28;1122;-54
2023/10/24 00:18:27;;;;;;;3.53;2.10;;;16.00;67.40;;;;;;349619;28;1426;-54
2023/10/24 00:18:38;;;;;;;2.85;1.90;;;16.00;67.40;;;;;;349678;28;1087;-54
2023/10/24 00:18:49;;;;;;;2.63;1.80;;;16.00;67.50;;;;;;349641;28;1309;-54
2023/10/24 00:18:59;;;;;;;2.53;1.70;;;16.00;67.50;;;;;;349660;28;972;-54
2023/10/24 00:19:10;;;;;;;3.57;1.80;;;16.10;67.50;;;;;;349723;28;979;-54
2023/10/24 00:19:21;;;;;;;5.30;2.20;;;16.00;67.50;;;;;;349684;28;983;-54
2023/10/24 00:19:31;;;;;;;5.22;2.40;;;16.00;67.30;;;;;;349713;28;983;-54
2023/10/24 00:19:42;;;;;;;4.30;2.13;;;16.00;67.30;;;;;;349707;28;1035;-54
2023/10/24 00:19:53;;;;;;;2.90;2.00;;;16.00;67.30;;;;;;349592;28;1154;-54
2023/10/24 00:20:04;;;;;;;2.63;2.00;;;16.00;67.30;;;;;;349689;28;916;-54
2023/10/24 00:20:15;;;;;;;3.08;2.08;;;16.00;67.40;;;;;;349675;28;1003;-55
2023/10/24 00:20:26;;;;;;;3.25;2.10;;;16.00;67.40;;;;;;349650;28;1098;-54
2023/10/24 00:20:37;;;;;;;3.22;2.17;;;16.00;67.40;;;;;;349705;28;976;-54
2023/10/24 00:20:47;;;;;;;3.25;2.13;;;16.00;67.30;;;;;;349572;28;1382;-54
2023/10/24 00:20:59;;;;;;;3.50;2.00;;;16.00;67.20;;;;;;349698;28;1015;-54
2023/10/24 00:21:09;;;;;;;3.70;2.08;;;16.00;67.30;;;;;;349663;28;1039;-54
2023/10/24 00:21:20;;;;;;;3.42;2.17;;;16.00;67.40;;;;;;349630;28;1031;-56
2023/10/24 00:21:31;;;;;;;3.40;2.30;;;16.00;67.40;;;;;;349753;28;921;-55
2023/10/24 00:21:41;;;;;;;4.00;2.03;;;16.00;67.50;;;;;;349734;28;852;-54
2023/10/24 00:21:52;;;;;;;3.97;2.00;;;16.00;67.50;;;;;;349578;28;1592;-54
2023/10/24 00:22:03;;;;;;;3.67;1.88;;;16.00;67.40;;;;;;349680;28;1165;-54
2023/10/24 00:22:14;;;;;;;2.67;1.98;;;16.00;67.40;;;;;;349670;28;1416;-54
2023/10/24 00:22:24;;;;;;;3.00;2.00;;;16.00;67.40;;;;;;349568;28;1634;-55
2023/10/24 00:22:35;;;;;;;3.60;2.20;;;16.00;67.50;;;;;;349690;28;1107;-53
2023/10/24 00:22:46;;;;;;;4.50;2.35;;;16.00;67.60;;;;;;349679;28;1157;-55
2023/10/24 00:22:56;;;;;;;4.35;2.28;;;16.00;67.60;;;;;;349683;28;922;-54
2023/10/24 00:23:07;;;;;;;3.70;2.20;;;16.00;67.60;;;;;;349719;28;833;-54
2023/10/24 00:23:18;;;;;;;3.90;2.10;;;16.00;67.60;;;;;;349651;28;1177;-54
2023/10/24 00:23:29;;;;;;;3.95;2.10;;;16.00;67.70;;;;;;349651;28;1019;-54
2023/10/24 00:23:39;;;;;;;4.00;2.30;;;16.00;67.60;;;;;;349673;28;1344;-54
2023/10/24 00:23:52;;;;;;;3.80;2.53;;;16.00;67.60;;;;;;349700;28;900;-54
2023/10/24 00:24:03;;;;;;;4.65;2.70;;;16.00;67.70;;;;;;349594;28;1114;-54
2023/10/24 00:24:14;;;;;;;4.68;2.60;;;16.00;67.70;;;;;;349694;28;1094;-54
2023/10/24 00:24:26;;;;;;;3.55;2.40;;;16.00;67.70;;;;;;349626;28;1902;-54
2023/10/24 00:24:36;;;;;;;3.22;2.30;;;16.00;67.60;;;;;;349613;28;999;-54
2023/10/24 00:24:47;;;;;;;3.13;2.35;;;16.00;67.50;;;;;;349731;28;865;-55
2023/10/24 00:24:58;;;;;;;3.10;2.40;;;16.00;67.30;;;;;;349637;28;1141;-54
2023/10/24 00:25:09;;;;;;;3.30;2.50;;;16.00;67.40;;;;;;349576;28;1162;-54
2023/10/24 00:25:19;;;;;;;3.20;2.42;;;16.00;67.30;;;;;;349629;28;1617;-54
2023/10/24 00:25:31;;;;;;;3.28;2.50;;;16.00;67.30;;;;;;349745;28;956;-54
2023/10/24 00:25:42;;;;;;;2.97;2.47;;;16.00;67.30;;;;;;349585;28;1114;-54
2023/10/24 00:25:53;;;;;;;3.33;2.70;;;16.00;67.20;;;;;;349676;28;1058;-54
2023/10/24 00:26:03;;;;;;;3.55;2.75;;;16.00;67.20;;;;;;349683;28;1059;-53
2023/10/24 00:26:14;;;;;;;3.97;2.80;;;16.00;67.20;;;;;;349673;28;1030;-54
2023/10/24 00:26:25;;;;;;;4.00;3.00;;;16.00;67.30;;;;;;349666;28;1161;-53
2023/10/24 00:26:35;;;;;;;3.73;2.70;;;16.00;67.40;;;;;;349673;28;1011;-54
2023/10/24 00:26:46;;;;;;;4.07;2.80;;;16.10;67.40;;;;;;349557;28;1438;-54
2023/10/24 00:26:57;;;;;;;4.22;2.60;;;16.00;67.50;;;;;;349685;28;1062;-54
2023/10/24 00:27:08;;;;;;;4.30;2.55;;;16.10;67.50;;;;;;349712;28;908;-53
2023/10/24 00:27:19;;;;;;;3.70;2.30;;;16.10;67.60;;;;;;349651;28;1082;-53
2023/10/24 00:27:29;;;;;;;3.40;2.47;;;16.00;67.70;;;;;;349594;28;1058;-54
2023/10/24 00:27:40;;;;;;;3.37;2.67;;;16.00;67.70;;;;;;349650;28;1090;-53
2023/10/24 00:27:51;;;;;;;3.60;2.60;;;16.10;67.70;;;;;;349562;28;1039;-54
2023/10/24 00:28:01;;;;;;;3.90;2.60;;;16.10;67.80;;;;;;349656;28;2008;-55
2023/10/24 00:28:13;;;;;;;3.63;2.50;;;16.00;67.80;;;;;;349723;28;1066;-54
2023/10/24 00:28:23;;;;;;;3.67;2.70;;;16.10;67.70;;;;;;349620;28;955;-54
2023/10/24 00:28:34;;;;;;;3.70;2.63;;;16.00;67.80;;;;;;349714;28;919;-54
2023/10/24 00:28:45;;;;;;;3.90;2.63;;;16.10;67.80;;;;;;349687;28;1090;-54
2023/10/24 00:28:56;;;;;;;3.87;2.60;;;16.10;67.70;;;;;;349568;28;1173;-54
2023/10/24 00:29:07;;;;;;;4.20;2.53;;;16.10;67.70;;;;;;349692;28;872;-55
2023/10/24 00:29:17;;;;;;;3.80;2.50;;;16.10;67.70;;;;;;349674;28;1700;-54
2023/10/24 00:29:28;;;;;;;3.50;2.47;;;16.00;67.70;;;;;;349594;28;1492;-54
2023/10/24 00:29:39;;;;;;;3.47;2.63;;;16.10;67.70;;;;;;349654;28;1023;-54
2023/10/24 00:29:50;;;;;;;3.75;2.90;;;16.10;67.60;;;;;;349754;28;801;-53
2023/10/24 00:30:00;;;;;;;3.45;2.95;;;16.10;67.60;;;;;;349595;28;991;-54
2023/10/24 00:30:11;;;;;;;3.75;2.97;;;16.10;67.70;;;;;;349674;28;1294;-54
2023/10/24 00:30:22;;;;;;;4.78;2.97;;;16.10;67.60;;;;;;349718;28;955;-54
2023/10/24 00:30:33;;;;;;;6.00;3.23;;;16.10;67.50;;;;;;349603;28;1016;-54
2023/10/24 00:30:43;;;;;;;5.33;3.27;;;16.10;67.40;;;;;;349673;28;1011;-55
2023/10/24 00:30:54;;;;;;;4.70;3.10;;;16.10;67.40;;;;;;349677;28;1090;-53
2023/10/24 00:31:07;;;;;;;4.10;3.00;;;16.10;67.40;;;;;;349701;28;1007;-54
2023/10/24 00:31:17;;;;;;;4.10;2.95;;;16.10;67.40;;;;;;349649;28;919;-53
2023/10/24 00:31:28;;;;;;;3.90;3.10;;;16.10;67.40;;;;;;349731;28;955;-53
2023/10/24 00:31:39;;;;;;;3.88;3.00;;;16.10;67.40;;;;;;349699;28;872;-54
2023/10/24 00:31:49;;;;;;;3.63;2.80;;;16.10;67.50;;;;;;349624;28;921;-55
2023/10/24 00:32:00;;;;;;;4.13;2.67;;;16.10;67.40;;;;;;349651;28;1915;-53
2023/10/24 00:32:14;;;;;;;4.45;2.90;;;16.10;67.40;;;;;;349667;28;1487;-53
2023/10/24 00:32:24;;;;;;;3.70;2.83;;;16.10;67.50;;;;;;349574;28;1102;-53
2023/10/24 00:32:35;;;;;;;3.90;2.80;;;16.00;67.50;;;;;;349675;28;955;-54
2023/10/24 00:32:49;;;;;;;4.25;2.80;;;16.00;67.50;;;;;;349676;28;1142;-54
2023/10/24 00:33:00;;;;;;;4.88;2.97;;;16.00;67.60;;;;;;349614;28;1113;-54
2023/10/24 00:33:11;;;;;;;4.28;2.78;;;16.10;67.60;;;;;;349674;28;991;-55
2023/10/24 00:33:21;;;;;;;4.10;2.78;;;16.10;67.50;;;;;;349680;28;1141;-54
2023/10/24 00:33:32;;;;;;;4.07;2.80;;;16.10;67.50;;;;;;349755;28;852;-54
2023/10/24 00:33:43;;;;;;;4.60;3.00;;;16.00;67.50;;;;;;349641;28;901;-54
2023/10/24 00:33:53;;;;;;;4.53;3.00;;;16.00;67.50;;;;;;349674;28;1086;-54
2023/10/24 00:34:04;;;;;;;4.18;2.90;;;16.00;67.50;;;;;;349712;28;1026;-54
2023/10/24 00:34:16;;;;;;;3.93;2.83;;;16.10;67.60;;;;;;349652;28;1098;-54
2023/10/24 00:34:27;;;;;;;3.50;2.70;;;16.10;67.70;;;;;;349575;28;1022;-54
2023/10/24 00:34:38;;;;;;;3.80;2.70;;;16.00;67.70;;;;;;349667;28;1800;-54
2023/10/24 00:34:48;;;;;;;4.60;2.63;;;16.10;67.80;;;;;;349706;28;944;-54
2023/10/24 00:34:59;;;;;;;4.63;2.70;;;16.10;67.80;;;;;;349634;28;905;-54
2023/10/24 00:35:10;;;;;;;4.20;2.70;;;16.10;67.60;;;;;;349510;28;1579;-54
2023/10/24 00:35:20;;;;;;;3.60;2.70;;;16.10;67.50;;;;;;349679;28;1078;-55
2023/10/24 00:35:33;;;;;;;3.92;2.72;;;16.10;67.50;;;;;;349690;28;797;-54
2023/10/24 00:35:43;;;;;;;4.45;2.80;;;16.10;67.50;;;;;;349578;28;1061;-53
2023/10/24 00:35:54;;;;;;;4.20;2.85;;;16.00;67.50;;;;;;349678;28;1098;-54
2023/10/24 00:36:05;;;;;;;3.85;2.70;;;16.00;67.50;;;;;;349639;28;2363;-53
2023/10/24 00:36:16;;;;;;;3.42;2.70;;;16.10;67.50;;;;;;349548;28;1216;-54
2023/10/24 00:36:27;;;;;;;3.65;2.67;;;16.10;67.60;;;;;;349666;28;911;-54
2023/10/24 00:36:39;;;;;;;3.53;2.77;;;16.00;67.60;;;;;;349618;28;1467;-53
2023/10/24 00:36:50;;;;;;;4.20;2.85;;;16.00;67.50;;;;;;349543;28;1288;-54
2023/10/24 00:37:01;;;;;;;4.70;3.00;;;16.00;67.60;;;;;;349617;28;1421;-54
2023/10/24 00:37:11;;;;;;;5.07;3.03;;;16.10;67.50;;;;;;349711;28;995;-54
2023/10/24 00:37:22;;;;;;;4.40;2.80;;;16.00;67.30;;;;;;349577;28;1145;-55
2023/10/24 00:37:33;;;;;;;4.07;2.60;;;16.00;67.30;;;;;;349681;28;986;-55
2023/10/24 00:37:44;;;;;;;3.50;2.63;;;16.00;67.20;;;;;;349695;28;1109;-54
2023/10/24 00:37:54;;;;;;;3.78;2.80;;;16.00;67.20;;;;;;349560;28;1807;-54
2023/10/24 00:38:05;;;;;;;3.70;2.70;;;16.00;67.20;;;;;;349668;28;1019;-54
2023/10/24 00:38:16;;;;;;;3.77;2.80;;;16.00;67.20;;;;;;349668;28;963;-54
2023/10/24 00:38:27;;;;;;;3.80;2.80;;;16.00;67.30;;;;;;349649;28;1050;-54
2023/10/24 00:38:38;;;;;;;3.85;2.90;;;16.00;67.30;;;;;;349613;28;975;-55
2023/10/24 00:38:48;;;;;;;3.70;2.70;;;16.00;67.40;;;;;;349646;28;1071;-54
2023/10/24 00:38:59;;;;;;;3.55;2.70;;;16.00;67.30;;;;;;349595;28;1086;-54
2023/10/24 00:39:10;;;;;;;3.77;2.67;;;16.00;67.30;;;;;;349600;28;1352;-54
2023/10/24 00:39:21;;;;;;;3.63;2.50;;;16.00;67.30;;;;;;349704;28;891;-54
2023/10/24 00:39:31;;;;;;;3.60;2.50;;;16.00;67.40;;;;;;349595;28;1105;-54
2023/10/24 00:39:42;;;;;;;3.53;2.70;;;16.00;67.40;;;;;;349646;28;1856;-54
2023/10/24 00:39:53;;;;;;;4.38;2.85;;;16.00;67.30;;;;;;349697;28;971;-54
2023/10/24 00:40:04;;;;;;;4.43;3.00;;;15.90;67.40;;;;;;349592;28;1800;-54
2023/10/24 00:40:15;;;;;;;4.20;2.90;;;15.90;67.40;;;;;;349670;28;848;-54
2023/10/24 00:40:26;;;;;;;3.00;2.70;;;15.90;67.50;;;;;;349659;28;1039;-54
2023/10/24 00:40:37;;;;;;;3.13;2.60;;;15.90;67.50;;;;;;349683;28;868;-54
2023/10/24 00:40:48;;;;;;;3.42;2.60;;;15.90;67.60;;;;;;349662;28;1066;-54
2023/10/24 00:40:58;;;;;;;4.47;2.70;;;15.90;67.60;;;;;;349625;28;1098;-54
2023/10/24 00:41:09;;;;;;;4.38;2.70;;;16.00;67.60;;;;;;349600;28;1075;-53
2023/10/24 00:41:20;;;;;;;3.83;2.67;;;16.00;67.60;;;;;;349717;28;880;-54
2023/10/24 00:41:30;;;;;;;3.17;2.60;;;16.00;67.60;;;;;;349557;28;1106;-54
2023/10/24 00:41:41;;;;;;;3.20;2.60;;;16.00;67.60;;;;;;349632;28;1041;-53
2023/10/24 00:41:52;;;;;;;3.47;2.50;;;16.00;67.50;;;;;;349683;28;887;-54
2023/10/24 00:42:05;;;;;;;3.55;2.42;;;16.00;67.50;;;;;;349650;28;983;-54
2023/10/24 00:42:15;;;;;;;4.30;2.53;;;16.00;67.50;;;;;;349599;28;1058;-52
2023/10/24 00:42:26;;;;;;;4.93;2.60;;;16.00;67.60;;;;;;349675;28;1101;-53
2023/10/24 00:42:37;;;;;;;5.07;2.80;;;16.00;67.60;;;;;;349579;28;1779;-53
2023/10/24 00:42:50;;;;;;;4.88;2.70;;;16.00;67.60;;;;;;349736;28;875;-53
2023/10/24 00:43:04;;;;;;;4.55;2.63;;;16.00;67.70;;;;;;349536;28;910;-54
2023/10/24 00:43:15;;;;;;;3.90;2.53;;;16.00;67.70;;;;;;349630;28;1134;-53
2023/10/24 00:43:25;;;;;;;3.90;2.50;;;16.00;67.70;;;;;;349611;28;1152;-53
2023/10/24 00:43:36;;;;;;;4.05;2.60;;;16.00;67.50;;;;;;349703;28;967;-53
2023/10/24 00:43:47;;;;;;;5.07;2.70;;;16.00;67.50;;;;;;349635;28;1591;-56
2023/10/24 00:43:57;;;;;;;5.37;2.83;;;15.90;67.40;;;;;;349532;28;1445;-54
2023/10/24 00:44:08;;;;;;;5.05;2.80;;;15.90;67.50;;;;;;349700;28;852;-54
2023/10/24 00:44:19;;;;;;;3.85;2.70;;;15.90;67.50;;;;;;349654;28;971;-54
2023/10/24 00:44:31;;;;;;;3.00;2.45;;;15.90;67.60;;;;;;349527;28;1914;-54
2023/10/24 00:44:42;;;;;;;3.08;2.50;;;15.90;67.60;;;;;;349661;28;876;-53
2023/10/24 00:44:53;;;;;;;4.07;2.50;;;15.90;67.60;;;;;;349550;28;2389;-53
2023/10/24 00:45:04;;;;;;;4.17;2.60;;;15.90;67.60;;;;;;349640;28;947;-53
2023/10/24 00:45:15;;;;;;;4.15;2.50;;;15.90;67.60;;;;;;349710;28;992;-53
2023/10/24 00:45:26;;;;;;;3.47;2.38;;;15.90;67.70;;;;;;349602;28;1050;-53
2023/10/24 00:45:37;;;;;;;3.53;2.33;;;15.90;67.50;;;;;;349659;28;1063;-53
2023/10/24 00:45:48;;;;;;;3.80;2.40;;;15.90;67.60;;;;;;349694;28;876;-54
2023/10/24 00:45:59;;;;;;;3.45;2.25;;;15.80;67.40;;;;;;349555;28;979;-54
2023/10/24 00:46:11;;;;;;;2.95;2.03;;;15.80;67.60;;;;;;349687;28;1090;-53
2023/10/24 00:46:22;;;;;;;2.95;2.05;;;15.70;67.70;;;;;;349690;28;880;-54
2023/10/24 00:46:38;;;;;;;3.05;2.15;;;15.70;67.80;;;;;;349569;28;986;-53
2023/10/24 00:46:49;;;;;;;3.28;2.30;;;15.70;68.00;;;;;;349605;28;1181;-54
2023/10/24 00:47:01;;;;;;;3.33;2.50;;;15.70;68.00;;;;;;349647;28;1093;-54
2023/10/24 00:47:12;;;;;;;3.42;2.33;;;15.70;68.00;;;;;;349523;28;1201;-54
2023/10/24 00:47:23;;;;;;;3.80;2.35;;;15.80;68.00;;;;;;349651;28;1019;-54
2023/10/24 00:47:34;;;;;;;4.13;2.25;;;15.70;68.10;;;;;;349665;28;880;-54
2023/10/24 00:47:45;;;;;;;3.85;2.30;;;15.80;68.10;;;;;;349631;28;1007;-54
2023/10/24 00:47:56;;;;;;;3.72;2.20;;;15.80;68.00;;;;;;349687;28;845;-54
2023/10/24 00:48:07;;;;;;;3.20;2.20;;;15.80;67.90;;;;;;349669;28;837;-54
2023/10/24 00:48:18;;;;;;;3.60;2.28;;;15.80;67.80;;;;;;349588;28;1165;-54
2023/10/24 00:48:30;;;;;;;4.18;2.40;;;15.80;67.70;;;;;;349606;28;1170;-53
2023/10/24 00:48:41;;;;;;;3.67;2.35;;;15.80;67.70;;;;;;349642;28;1015;-53
2023/10/24 00:48:53;;;;;;;3.17;2.28;;;15.80;67.80;;;;;;349590;28;959;-54
2023/10/24 00:49:04;;;;;;;3.40;2.30;;;15.80;67.80;;;;;;349605;28;1831;-53
2023/10/24 00:49:15;;;;;;;3.53;2.38;;;15.80;67.90;;;;;;349653;28;1042;-53
2023/10/24 00:49:26;;;;;;;3.47;2.42;;;15.80;67.90;;;;;;349577;28;1035;-55
2023/10/24 00:49:37;;;;;;;3.08;2.40;;;15.80;67.80;;;;;;349696;28;932;-53
2023/10/24 00:49:48;;;;;;;3.00;2.38;;;15.80;67.80;;;;;;349646;28;1031;-53
2023/10/24 00:49:59;;;;;;;2.95;2.30;;;15.90;67.90;;;;;;349522;28;1281;-53
2023/10/24 00:50:12;;;;;;;2.88;2.30;;;15.80;67.90;;;;;;349656;28;1034;-53
2023/10/24 00:50:23;;;;;;;3.05;2.30;;;15.80;67.90;;;;;;349585;28;1134;-54
2023/10/24 00:50:34;;;;;;;3.10;2.40;;;15.90;67.90;;;;;;349561;28;1019;-54
2023/10/24 00:50:45;;;;;;;3.45;2.50;;;15.80;67.90;;;;;;349593;28;1397;-54
2023/10/24 00:50:56;;;;;;;3.47;2.40;;;15.90;67.90;;;;;;349701;28;912;-54
2023/10/24 00:51:07;;;;;;;3.70;2.40;;;15.90;67.80;;;;;;349640;28;971;-54
2023/10/24 00:51:17;;;;;;;3.20;2.40;;;15.90;67.80;;;;;;349589;28;1929;-53
2023/10/24 00:51:28;;;;;;;3.53;2.30;;;15.80;67.80;;;;;;349645;28;967;-55
2023/10/24 00:51:40;;;;;;;3.30;2.20;;;15.80;67.90;;;;;;349647;28;1941;-54
2023/10/24 00:51:53;;;;;;;3.85;2.20;;;15.90;67.90;;;;;;349635;28;1721;-53
2023/10/24 00:52:04;;;;;;;3.47;2.38;;;15.90;67.80;;;;;;349557;28;875;-54
2023/10/24 00:52:15;;;;;;;3.42;2.40;;;15.90;67.70;;;;;;349613;28;1130;-54
2023/10/24 00:52:26;;;;;;;3.85;2.60;;;15.80;67.60;;;;;;349667;28;1019;-53
2023/10/24 00:52:38;;;;;;;3.90;2.40;;;15.90;67.70;;;;;;349597;28;869;-55
2023/10/24 00:52:48;;;;;;;3.40;2.30;;;15.90;67.80;;;;;;349560;28;1253;-53
2023/10/24 00:53:01;;;;;;;3.28;2.22;;;15.90;67.90;;;;;;349630;28;1023;-54
2023/10/24 00:53:12;;;;;;;3.38;2.30;;;15.90;67.90;;;;;;349650;28;1043;-54
2023/10/24 00:53:22;;;;;;;3.50;2.33;;;15.90;67.80;;;;;;349685;28;797;-54
2023/10/24 00:53:33;;;;;;;3.47;2.30;;;15.90;67.70;;;;;;349565;28;1398;-54
2023/10/24 00:53:44;;;;;;;3.47;2.17;;;15.80;67.60;;;;;;349638;28;1090;-54
2023/10/24 00:53:57;;;;;;;3.70;2.20;;;15.80;67.70;;;;;;349633;28;1083;-53
2023/10/24 00:54:09;;;;;;;3.75;2.25;;;15.90;67.70;;;;;;349686;28;913;-53
2023/10/24 00:54:21;;;;;;;2.97;2.13;;;15.80;67.70;;;;;;349590;28;965;-53
2023/10/24 00:54:34;;;;;;;3.03;2.10;;;15.90;67.70;;;;;;349597;28;1119;-53
2023/10/24 00:54:45;;;;;;;2.85;1.98;;;15.90;67.70;;;;;;349564;28;1613;-55
2023/10/24 00:54:56;;;;;;;2.60;1.90;;;15.90;67.60;;;;;;349666;28;1014;-54
2023/10/24 00:55:07;;;;;;;2.95;2.20;;;15.90;67.50;;;;;;349590;28;1018;-54
2023/10/24 00:55:19;;;;;;;3.95;2.45;;;15.80;67.70;;;;;;349664;28;932;-54
2023/10/24 00:55:30;;;;;;;4.22;2.50;;;15.80;67.80;;;;;;349673;28;927;-54
2023/10/24 00:55:41;;;;;;;4.00;2.30;;;15.80;67.90;;;;;;349680;28;987;-53
2023/10/24 00:55:52;;;;;;;2.95;2.20;;;15.90;67.90;;;;;;349519;28;1297;-54
2023/10/24 00:56:03;;;;;;;3.05;2.20;;;15.90;67.90;;;;;;349602;28;1301;-54
2023/10/24 00:56:14;;;;;;;3.15;2.20;;;15.80;67.90;;;;;;349695;28;1014;-54
2023/10/24 00:56:27;;;;;;;3.17;2.10;;;15.90;68.00;;;;;;349645;28;1252;-54
2023/10/24 00:56:39;;;;;;;4.35;2.15;;;15.90;68.00;;;;;;349516;28;1110;-54
2023/10/24 00:56:50;;;;;;;4.22;2.20;;;15.80;67.90;;;;;;349584;28;1452;-53
2023/10/24 00:57:03;;;;;;;4.63;2.30;;;15.80;67.90;;;;;;349640;28;1074;-54
2023/10/24 00:57:14;;;;;;;4.45;2.20;;;15.80;67.90;;;;;;349673;28;988;-54
2023/10/24 00:57:25;;;;;;;4.85;2.30;;;15.80;67.90;;;;;;349520;28;1468;-54
2023/10/24 00:57:37;;;;;;;4.10;2.15;;;15.80;67.80;;;;;;349706;28;880;-53
2023/10/24 00:57:49;;;;;;;3.45;2.05;;;15.80;67.80;;;;;;349705;28;848;-55
2023/10/24 00:58:01;;;;;;;4.68;2.05;;;15.80;67.90;;;;;;349603;28;1086;-54
2023/10/24 00:58:13;;;;;;;4.32;2.20;;;15.90;67.90;;;;;;349545;28;960;-54
2023/10/24 00:58:24;;;;;;;3.97;2.33;;;15.80;67.80;;;;;;349634;28;937;-54
2023/10/24 00:58:36;;;;;;;3.90;2.22;;;15.80;67.80;;;;;;349596;28;1122;-54
2023/10/24 00:58:48;;;;;;;3.92;2.15;;;15.80;67.80;;;;;;349645;28;1613;-54
2023/10/24 00:59:02;;;;;;;3.90;2.10;;;15.80;67.80;;;;;;349498;28;1086;-55
2023/10/24 00:59:13;;;;;;;3.63;2.00;;;15.80;68.00;;;;;;349637;28;976;-54
2023/10/24 00:59:26;;;;;;;3.13;2.00;;;15.80;68.30;;;;;;349687;28;931;-54